sensor_id;sensor_type;location;lat;lon;timestamp;P1;P2;P0
57289;PMS5003;43523;53.022;-1.178;2023-05-10T00:00:09;6;5;
57289;PMS5003;43523;53.022;-1.178;2023-05-10T00:01:13;6;6;
57289;PMS5003;43523;53.022;-1.178;2023-05-10T00:02:15;9;6;
57289;PMS5003;43523;53.022;-1.178;2023-05-10T00:03:17;9;6;
57289;PMS5003;43523;53.022;-1.178;2023-05-10T00:04:20;8;6;
57289;PMS5003;43523;53.022;-1.178;2023-05-10T00:05:22;9;5;
57289;PMS5003;43523;53.022;-1.178;2023-05-10T00:06:24;6;4;
57289;PMS5003;43523;53.022;-1.178;2023-05-10T00:07:27;9;5;
57289;PMS5003;43523;53.022;-1.178;2023-05-10T00:08:29;5;5;
57289;PMS5003;43523;53.022;-1.178;2023-05-10T00:09:32;7;4;
57289;PMS5003;43523;53.022;-1.178;2023-05-10T00:10:34;6;6;
57289;PMS5003;43523;53.022;-1.178;2023-05-10T00:11:36;5;4;
57289;PMS5003;43523;53.022;-1.178;2023-05-10T00:12:39;5;5;
57289;PMS5003;43523;53.022;-1.178;2023-05-10T00:13:41;8;4;
57289;PMS5003;43523;53.022;-1.178;2023-05-10T00:14:44;7;6;
57289;PMS5003;43523;53.022;-1.178;2023-05-10T00:15:46;9;8;
57289;PMS5003;43523;53.022;-1.178;2023-05-10T00:16:48;8;4;
57289;PMS5003;43523;53.022;-1.178;2023-05-10T00:17:50;10;8;
57289;PMS5003;43523;53.022;-1.178;2023-05-10T00:18:53;9;5;
57289;PMS5003;43523;53.022;-1.178;2023-05-10T00:19:55;13;7;
57289;PMS5003;43523;53.022;-1.178;2023-05-10T00:20:58;12;8;
57289;PMS5003;43523;53.022;-1.178;2023-05-10T00:22:00;5;4;
57289;PMS5003;43523;53.022;-1.178;2023-05-10T00:23:02;14;6;
57289;PMS5003;43523;53.022;-1.178;2023-05-10T00:24:05;9;7;
57289;PMS5003;43523;53.022;-1.178;2023-05-10T00:25:09;11;7;
57289;PMS5003;43523;53.022;-1.178;2023-05-10T00:26:12;8;5;
57289;PMS5003;43523;53.022;-1.178;2023-05-10T00:27:14;5;5;
57289;PMS5003;43523;53.022;-1.178;2023-05-10T00:28:16;8;6;
57289;PMS5003;43523;53.022;-1.178;2023-05-10T00:29:19;9;5;
57289;PMS5003;43523;53.022;-1.178;2023-05-10T00:30:21;6;6;
57289;PMS5003;43523;53.022;-1.178;2023-05-10T00:31:23;8;6;
57289;PMS5003;43523;53.022;-1.178;2023-05-10T00:32:26;8;6;
57289;PMS5003;43523;53.022;-1.178;2023-05-10T00:33:28;8;6;
57289;PMS5003;43523;53.022;-1.178;2023-05-10T00:34:31;10;6;
57289;PMS5003;43523;53.022;-1.178;2023-05-10T00:35:33;6;6;
57289;PMS5003;43523;53.022;-1.178;2023-05-10T00:36:35;8;6;
57289;PMS5003;43523;53.022;-1.178;2023-05-10T00:37:38;8;4;
57289;PMS5003;43523;53.022;-1.178;2023-05-10T00:38:40;9;6;
57289;PMS5003;43523;53.022;-1.178;2023-05-10T00:39:42;5;5;
57289;PMS5003;43523;53.022;-1.178;2023-05-10T00:40:45;9;7;
57289;PMS5003;43523;53.022;-1.178;2023-05-10T00:41:48;12;10;
57289;PMS5003;43523;53.022;-1.178;2023-05-10T00:42:51;7;6;
57289;PMS5003;43523;53.022;-1.178;2023-05-10T00:43:53;8;6;
57289;PMS5003;43523;53.022;-1.178;2023-05-10T00:44:56;8;6;
57289;PMS5003;43523;53.022;-1.178;2023-05-10T00:45:58;7;6;
57289;PMS5003;43523;53.022;-1.178;2023-05-10T00:47:01;7;3;
57289;PMS5003;43523;53.022;-1.178;2023-05-10T00:48:04;7;6;
57289;PMS5003;43523;53.022;-1.178;2023-05-10T00:49:07;12;10;
57289;PMS5003;43523;53.022;-1.178;2023-05-10T00:50:10;6;6;
57289;PMS5003;43523;53.022;-1.178;2023-05-10T00:51:13;10;6;
57289;PMS5003;43523;53.022;-1.178;2023-05-10T00:52:15;11;7;
57289;PMS5003;43523;53.022;-1.178;2023-05-10T00:53:17;10;8;
57289;PMS5003;43523;53.022;-1.178;2023-05-10T00:54:19;13;7;
57289;PMS5003;43523;53.022;-1.178;2023-05-10T00:55:22;9;7;
57289;PMS5003;43523;53.022;-1.178;2023-05-10T00:56:25;8;5;
57289;PMS5003;43523;53.022;-1.178;2023-05-10T00:57:27;8;6;
57289;PMS5003;43523;53.022;-1.178;2023-05-10T00:58:30;9;7;
57289;PMS5003;43523;53.022;-1.178;2023-05-10T00:59:32;15;10;
57289;PMS5003;43523;53.022;-1.178;2023-05-10T01:00:35;9;6;
57289;PMS5003;43523;53.022;-1.178;2023-05-10T01:01:39;9;8;
57289;PMS5003;43523;53.022;-1.178;2023-05-10T01:02:41;14;7;
57289;PMS5003;43523;53.022;-1.178;2023-05-10T01:03:43;7;6;
57289;PMS5003;43523;53.022;-1.178;2023-05-10T01:04:47;12;9;
57289;PMS5003;43523;53.022;-1.178;2023-05-10T01:05:55;7;5;
57289;PMS5003;43523;53.022;-1.178;2023-05-10T01:06:58;10;8;
57289;PMS5003;43523;53.022;-1.178;2023-05-10T01:08:00;7;6;
57289;PMS5003;43523;53.022;-1.178;2023-05-10T01:09:04;11;8;
57289;PMS5003;43523;53.022;-1.178;2023-05-10T01:10:07;11;8;
57289;PMS5003;43523;53.022;-1.178;2023-05-10T01:11:11;10;8;
57289;PMS5003;43523;53.022;-1.178;2023-05-10T01:12:13;7;7;
57289;PMS5003;43523;53.022;-1.178;2023-05-10T01:13:18;10;8;
57289;PMS5003;43523;53.022;-1.178;2023-05-10T01:14:30;9;6;
57289;PMS5003;43523;53.022;-1.178;2023-05-10T01:15:32;14;11;
57289;PMS5003;43523;53.022;-1.178;2023-05-10T01:16:35;14;11;
57289;PMS5003;43523;53.022;-1.178;2023-05-10T01:17:40;9;8;
57289;PMS5003;43523;53.022;-1.178;2023-05-10T01:18:46;14;8;
57289;PMS5003;43523;53.022;-1.178;2023-05-10T01:19:50;10;8;
57289;PMS5003;43523;53.022;-1.178;2023-05-10T01:20:54;10;9;
57289;PMS5003;43523;53.022;-1.178;2023-05-10T01:22:09;9;8;
57289;PMS5003;43523;53.022;-1.178;2023-05-10T01:23:31;9;8;
57289;PMS5003;43523;53.022;-1.178;2023-05-10T01:24:53;11;9;
57289;PMS5003;43523;53.022;-1.178;2023-05-10T01:26:14;9;6;
57289;PMS5003;43523;53.022;-1.178;2023-05-10T01:27:53;5;5;
57289;PMS5003;43523;53.022;-1.178;2023-05-10T01:29:27;12;8;
57289;PMS5003;43523;53.022;-1.178;2023-05-10T01:32:02;9;9;
57289;PMS5003;43523;53.022;-1.178;2023-05-10T01:33:23;8;7;
57289;PMS5003;43523;53.022;-1.178;2023-05-10T01:34:31;10;5;
57289;PMS5003;43523;53.022;-1.178;2023-05-10T01:35:37;11;8;
57289;PMS5003;43523;53.022;-1.178;2023-05-10T01:36:45;9;6;
57289;PMS5003;43523;53.022;-1.178;2023-05-10T01:37:56;14;9;
57289;PMS5003;43523;53.022;-1.178;2023-05-10T01:39:06;11;8;
57289;PMS5003;43523;53.022;-1.178;2023-05-10T01:40:19;8;6;
57289;PMS5003;43523;53.022;-1.178;2023-05-10T01:41:30;9;6;
57289;PMS5003;43523;53.022;-1.178;2023-05-10T01:42:40;14;8;
57289;PMS5003;43523;53.022;-1.178;2023-05-10T01:43:52;6;6;
57289;PMS5003;43523;53.022;-1.178;2023-05-10T01:45:00;8;5;
57289;PMS5003;43523;53.022;-1.178;2023-05-10T01:46:09;6;6;
57289;PMS5003;43523;53.022;-1.178;2023-05-10T01:47:17;10;7;
57289;PMS5003;43523;53.022;-1.178;2023-05-10T01:48:27;8;7;
57289;PMS5003;43523;53.022;-1.178;2023-05-10T01:49:32;9;8;
57289;PMS5003;43523;53.022;-1.178;2023-05-10T01:50:41;12;6;
57289;PMS5003;43523;53.022;-1.178;2023-05-10T01:51:46;10;8;
57289;PMS5003;43523;53.022;-1.178;2023-05-10T01:52:53;8;6;
57289;PMS5003;43523;53.022;-1.178;2023-05-10T01:53:59;8;7;
57289;PMS5003;43523;53.022;-1.178;2023-05-10T01:55:05;8;5;
57289;PMS5003;43523;53.022;-1.178;2023-05-10T01:56:10;13;10;
57289;PMS5003;43523;53.022;-1.178;2023-05-10T01:57:14;9;7;
57289;PMS5003;43523;53.022;-1.178;2023-05-10T01:58:21;7;5;
57289;PMS5003;43523;53.022;-1.178;2023-05-10T01:59:28;13;7;
57289;PMS5003;43523;53.022;-1.178;2023-05-10T02:00:33;10;6;
57289;PMS5003;43523;53.022;-1.178;2023-05-10T02:01:37;8;7;
57289;PMS5003;43523;53.022;-1.178;2023-05-10T02:02:39;7;6;
57289;PMS5003;43523;53.022;-1.178;2023-05-10T02:03:46;5;4;
57289;PMS5003;43523;53.022;-1.178;2023-05-10T02:04:49;7;5;
57289;PMS5003;43523;53.022;-1.178;2023-05-10T02:05:54;10;7;
57289;PMS5003;43523;53.022;-1.178;2023-05-10T02:06:58;6;6;
57289;PMS5003;43523;53.022;-1.178;2023-05-10T02:08:01;7;7;
57289;PMS5003;43523;53.022;-1.178;2023-05-10T02:09:07;9;6;
57289;PMS5003;43523;53.022;-1.178;2023-05-10T02:10:12;9;7;
57289;PMS5003;43523;53.022;-1.178;2023-05-10T02:11:17;10;8;
57289;PMS5003;43523;53.022;-1.178;2023-05-10T02:12:20;12;5;
57289;PMS5003;43523;53.022;-1.178;2023-05-10T02:13:25;7;5;
57289;PMS5003;43523;53.022;-1.178;2023-05-10T02:14:29;3;3;
57289;PMS5003;43523;53.022;-1.178;2023-05-10T02:15:34;7;6;
57289;PMS5003;43523;53.022;-1.178;2023-05-10T02:16:38;8;6;
57289;PMS5003;43523;53.022;-1.178;2023-05-10T02:17:47;6;5;
57289;PMS5003;43523;53.022;-1.178;2023-05-10T02:18:50;9;7;
57289;PMS5003;43523;53.022;-1.178;2023-05-10T02:19:54;5;5;
57289;PMS5003;43523;53.022;-1.178;2023-05-10T02:20:58;4;4;
57289;PMS5003;43523;53.022;-1.178;2023-05-10T02:22:03;9;6;
57289;PMS5003;43523;53.022;-1.178;2023-05-10T02:23:06;9;7;
57289;PMS5003;43523;53.022;-1.178;2023-05-10T02:24:09;4;4;
57289;PMS5003;43523;53.022;-1.178;2023-05-10T02:25:15;10;6;
57289;PMS5003;43523;53.022;-1.178;2023-05-10T02:26:19;6;6;
57289;PMS5003;43523;53.022;-1.178;2023-05-10T02:27:24;8;5;
57289;PMS5003;43523;53.022;-1.178;2023-05-10T02:28:29;8;7;
57289;PMS5003;43523;53.022;-1.178;2023-05-10T02:29:33;7;6;
57289;PMS5003;43523;53.022;-1.178;2023-05-10T02:30:36;8;8;
57289;PMS5003;43523;53.022;-1.178;2023-05-10T02:31:38;8;6;
57289;PMS5003;43523;53.022;-1.178;2023-05-10T02:32:41;10;8;
57289;PMS5003;43523;53.022;-1.178;2023-05-10T02:33:46;8;7;
57289;PMS5003;43523;53.022;-1.178;2023-05-10T02:34:50;4;4;
57289;PMS5003;43523;53.022;-1.178;2023-05-10T02:35:54;8;4;
57289;PMS5003;43523;53.022;-1.178;2023-05-10T02:36:57;6;6;
57289;PMS5003;43523;53.022;-1.178;2023-05-10T02:38:01;5;4;
57289;PMS5003;43523;53.022;-1.178;2023-05-10T02:39:05;6;6;
57289;PMS5003;43523;53.022;-1.178;2023-05-10T02:40:09;6;4;
57289;PMS5003;43523;53.022;-1.178;2023-05-10T02:41:12;7;6;
57289;PMS5003;43523;53.022;-1.178;2023-05-10T02:42:16;8;5;
57289;PMS5003;43523;53.022;-1.178;2023-05-10T02:43:21;10;10;
57289;PMS5003;43523;53.022;-1.178;2023-05-10T02:44:26;6;4;
57289;PMS5003;43523;53.022;-1.178;2023-05-10T02:45:31;9;6;
57289;PMS5003;43523;53.022;-1.178;2023-05-10T02:46:37;5;5;
57289;PMS5003;43523;53.022;-1.178;2023-05-10T02:47:39;7;7;
57289;PMS5003;43523;53.022;-1.178;2023-05-10T02:48:42;9;8;
57289;PMS5003;43523;53.022;-1.178;2023-05-10T02:49:45;11;9;
57289;PMS5003;43523;53.022;-1.178;2023-05-10T02:50:49;15;9;
57289;PMS5003;43523;53.022;-1.178;2023-05-10T02:51:55;7;5;
57289;PMS5003;43523;53.022;-1.178;2023-05-10T02:53:03;9;5;
57289;PMS5003;43523;53.022;-1.178;2023-05-10T02:54:15;14;13;
57289;PMS5003;43523;53.022;-1.178;2023-05-10T02:55:21;7;6;
57289;PMS5003;43523;53.022;-1.178;2023-05-10T02:56:28;6;6;
57289;PMS5003;43523;53.022;-1.178;2023-05-10T02:57:34;5;5;
57289;PMS5003;43523;53.022;-1.178;2023-05-10T02:58:42;9;7;
57289;PMS5003;43523;53.022;-1.178;2023-05-10T02:59:44;10;6;
57289;PMS5003;43523;53.022;-1.178;2023-05-10T03:00:48;5;5;
57289;PMS5003;43523;53.022;-1.178;2023-05-10T03:01:50;5;5;
57289;PMS5003;43523;53.022;-1.178;2023-05-10T03:02:53;16;12;
57289;PMS5003;43523;53.022;-1.178;2023-05-10T03:03:56;11;11;
57289;PMS5003;43523;53.022;-1.178;2023-05-10T03:04:58;7;6;
57289;PMS5003;43523;53.022;-1.178;2023-05-10T03:06:00;9;7;
57289;PMS5003;43523;53.022;-1.178;2023-05-10T03:07:02;11;6;
57289;PMS5003;43523;53.022;-1.178;2023-05-10T03:08:05;12;9;
57289;PMS5003;43523;53.022;-1.178;2023-05-10T03:09:08;9;6;
57289;PMS5003;43523;53.022;-1.178;2023-05-10T03:10:12;5;5;
57289;PMS5003;43523;53.022;-1.178;2023-05-10T03:11:20;9;8;
57289;PMS5003;43523;53.022;-1.178;2023-05-10T03:12:33;11;10;
57289;PMS5003;43523;53.022;-1.178;2023-05-10T03:13:48;12;8;
57289;PMS5003;43523;53.022;-1.178;2023-05-10T03:15:00;8;8;
57289;PMS5003;43523;53.022;-1.178;2023-05-10T03:16:08;7;6;
57289;PMS5003;43523;53.022;-1.178;2023-05-10T03:17:18;8;7;
57289;PMS5003;43523;53.022;-1.178;2023-05-10T03:18:28;10;8;
57289;PMS5003;43523;53.022;-1.178;2023-05-10T03:19:39;8;5;
57289;PMS5003;43523;53.022;-1.178;2023-05-10T03:20:49;7;5;
57289;PMS5003;43523;53.022;-1.178;2023-05-10T03:21:56;12;7;
57289;PMS5003;43523;53.022;-1.178;2023-05-10T03:23:07;8;5;
57289;PMS5003;43523;53.022;-1.178;2023-05-10T03:24:15;7;5;
57289;PMS5003;43523;53.022;-1.178;2023-05-10T03:25:19;7;6;
57289;PMS5003;43523;53.022;-1.178;2023-05-10T03:26:24;10;5;
57289;PMS5003;43523;53.022;-1.178;2023-05-10T03:27:28;6;5;
57289;PMS5003;43523;53.022;-1.178;2023-05-10T03:28:37;5;5;
57289;PMS5003;43523;53.022;-1.178;2023-05-10T03:29:42;7;7;
57289;PMS5003;43523;53.022;-1.178;2023-05-10T03:30:47;4;4;
57289;PMS5003;43523;53.022;-1.178;2023-05-10T03:31:53;8;7;
57289;PMS5003;43523;53.022;-1.178;2023-05-10T03:32:56;10;8;
57289;PMS5003;43523;53.022;-1.178;2023-05-10T03:33:58;5;5;
57289;PMS5003;43523;53.022;-1.178;2023-05-10T03:35:00;9;8;
57289;PMS5003;43523;53.022;-1.178;2023-05-10T03:36:07;12;8;
57289;PMS5003;43523;53.022;-1.178;2023-05-10T03:37:10;10;10;
57289;PMS5003;43523;53.022;-1.178;2023-05-10T03:38:13;8;7;
57289;PMS5003;43523;53.022;-1.178;2023-05-10T03:39:15;8;6;
57289;PMS5003;43523;53.022;-1.178;2023-05-10T03:40:20;8;8;
57289;PMS5003;43523;53.022;-1.178;2023-05-10T03:41:22;8;6;
57289;PMS5003;43523;53.022;-1.178;2023-05-10T03:42:24;7;7;
57289;PMS5003;43523;53.022;-1.178;2023-05-10T03:43:27;9;8;
57289;PMS5003;43523;53.022;-1.178;2023-05-10T03:44:29;7;6;
57289;PMS5003;43523;53.022;-1.178;2023-05-10T03:45:32;11;7;
57289;PMS5003;43523;53.022;-1.178;2023-05-10T03:46:34;12;5;
57289;PMS5003;43523;53.022;-1.178;2023-05-10T03:47:37;8;8;
57289;PMS5003;43523;53.022;-1.178;2023-05-10T03:48:39;10;10;
57289;PMS5003;43523;53.022;-1.178;2023-05-10T03:49:42;11;8;
57289;PMS5003;43523;53.022;-1.178;2023-05-10T03:50:44;14;11;
57289;PMS5003;43523;53.022;-1.178;2023-05-10T03:51:48;11;8;
57289;PMS5003;43523;53.022;-1.178;2023-05-10T03:52:50;10;9;
57289;PMS5003;43523;53.022;-1.178;2023-05-10T03:53:53;17;10;
57289;PMS5003;43523;53.022;-1.178;2023-05-10T03:54:55;15;9;
57289;PMS5003;43523;53.022;-1.178;2023-05-10T03:55:57;13;11;
57289;PMS5003;43523;53.022;-1.178;2023-05-10T03:57:00;11;10;
57289;PMS5003;43523;53.022;-1.178;2023-05-10T03:58:02;9;8;
57289;PMS5003;43523;53.022;-1.178;2023-05-10T03:59:05;12;10;
57289;PMS5003;43523;53.022;-1.178;2023-05-10T04:00:07;10;9;
57289;PMS5003;43523;53.022;-1.178;2023-05-10T04:01:10;9;8;
57289;PMS5003;43523;53.022;-1.178;2023-05-10T04:02:13;11;9;
57289;PMS5003;43523;53.022;-1.178;2023-05-10T04:03:15;8;8;
57289;PMS5003;43523;53.022;-1.178;2023-05-10T04:04:18;13;6;
57289;PMS5003;43523;53.022;-1.178;2023-05-10T04:05:20;9;9;
57289;PMS5003;43523;53.022;-1.178;2023-05-10T04:06:23;12;10;
57289;PMS5003;43523;53.022;-1.178;2023-05-10T04:07:26;20;12;
57289;PMS5003;43523;53.022;-1.178;2023-05-10T04:08:28;9;7;
57289;PMS5003;43523;53.022;-1.178;2023-05-10T04:09:32;8;7;
57289;PMS5003;43523;53.022;-1.178;2023-05-10T04:10:34;20;13;
57289;PMS5003;43523;53.022;-1.178;2023-05-10T04:11:36;13;9;
57289;PMS5003;43523;53.022;-1.178;2023-05-10T04:12:39;16;9;
57289;PMS5003;43523;53.022;-1.178;2023-05-10T04:13:41;10;10;
57289;PMS5003;43523;53.022;-1.178;2023-05-10T04:14:43;11;7;
57289;PMS5003;43523;53.022;-1.178;2023-05-10T04:15:46;14;10;
57289;PMS5003;43523;53.022;-1.178;2023-05-10T04:16:48;15;8;
57289;PMS5003;43523;53.022;-1.178;2023-05-10T04:17:51;8;6;
57289;PMS5003;43523;53.022;-1.178;2023-05-10T04:18:53;11;7;
57289;PMS5003;43523;53.022;-1.178;2023-05-10T04:19:55;12;9;
57289;PMS5003;43523;53.022;-1.178;2023-05-10T04:20:58;9;7;
57289;PMS5003;43523;53.022;-1.178;2023-05-10T04:22:02;10;9;
57289;PMS5003;43523;53.022;-1.178;2023-05-10T04:23:04;7;7;
57289;PMS5003;43523;53.022;-1.178;2023-05-10T04:24:06;11;7;
57289;PMS5003;43523;53.022;-1.178;2023-05-10T04:25:09;11;8;
57289;PMS5003;43523;53.022;-1.178;2023-05-10T04:26:12;10;8;
57289;PMS5003;43523;53.022;-1.178;2023-05-10T04:27:14;10;10;
57289;PMS5003;43523;53.022;-1.178;2023-05-10T04:28:17;12;7;
57289;PMS5003;43523;53.022;-1.178;2023-05-10T04:29:19;12;9;
57289;PMS5003;43523;53.022;-1.178;2023-05-10T04:30:21;8;8;
57289;PMS5003;43523;53.022;-1.178;2023-05-10T04:31:24;10;7;
57289;PMS5003;43523;53.022;-1.178;2023-05-10T04:32:26;12;7;
57289;PMS5003;43523;53.022;-1.178;2023-05-10T04:33:29;7;7;
57289;PMS5003;43523;53.022;-1.178;2023-05-10T04:34:31;9;6;
57289;PMS5003;43523;53.022;-1.178;2023-05-10T04:35:34;13;9;
57289;PMS5003;43523;53.022;-1.178;2023-05-10T04:36:37;12;9;
57289;PMS5003;43523;53.022;-1.178;2023-05-10T04:37:39;14;8;
57289;PMS5003;43523;53.022;-1.178;2023-05-10T04:38:42;8;6;
57289;PMS5003;43523;53.022;-1.178;2023-05-10T04:39:44;7;7;
57289;PMS5003;43523;53.022;-1.178;2023-05-10T04:40:47;11;9;
57289;PMS5003;43523;53.022;-1.178;2023-05-10T04:41:50;12;8;
57289;PMS5003;43523;53.022;-1.178;2023-05-10T04:42:52;9;9;
57289;PMS5003;43523;53.022;-1.178;2023-05-10T04:43:55;8;6;
57289;PMS5003;43523;53.022;-1.178;2023-05-10T04:44:57;7;7;
57289;PMS5003;43523;53.022;-1.178;2023-05-10T04:46:00;12;10;
57289;PMS5003;43523;53.022;-1.178;2023-05-10T04:47:02;11;9;
57289;PMS5003;43523;53.022;-1.178;2023-05-10T04:48:05;11;8;
57289;PMS5003;43523;53.022;-1.178;2023-05-10T04:49:07;11;8;
57289;PMS5003;43523;53.022;-1.178;2023-05-10T04:50:09;15;11;
57289;PMS5003;43523;53.022;-1.178;2023-05-10T04:51:13;8;8;
57289;PMS5003;43523;53.022;-1.178;2023-05-10T04:52:15;11;9;
57289;PMS5003;43523;53.022;-1.178;2023-05-10T04:53:17;13;10;
57289;PMS5003;43523;53.022;-1.178;2023-05-10T04:54:20;9;8;
57289;PMS5003;43523;53.022;-1.178;2023-05-10T04:55:22;8;8;
57289;PMS5003;43523;53.022;-1.178;2023-05-10T04:56:25;12;8;
57289;PMS5003;43523;53.022;-1.178;2023-05-10T04:57:27;18;11;
57289;PMS5003;43523;53.022;-1.178;2023-05-10T04:58:30;11;9;
57289;PMS5003;43523;53.022;-1.178;2023-05-10T04:59:32;14;11;
57289;PMS5003;43523;53.022;-1.178;2023-05-10T05:00:36;14;8;
57289;PMS5003;43523;53.022;-1.178;2023-05-10T05:01:39;14;13;
57289;PMS5003;43523;53.022;-1.178;2023-05-10T05:02:42;15;10;
57289;PMS5003;43523;53.022;-1.178;2023-05-10T05:03:44;13;9;
57289;PMS5003;43523;53.022;-1.178;2023-05-10T05:04:48;16;11;
57289;PMS5003;43523;53.022;-1.178;2023-05-10T05:05:50;16;11;
57289;PMS5003;43523;53.022;-1.178;2023-05-10T05:06:52;11;11;
57289;PMS5003;43523;53.022;-1.178;2023-05-10T05:07:55;16;10;
57289;PMS5003;43523;53.022;-1.178;2023-05-10T05:08:59;16;8;
57289;PMS5003;43523;53.022;-1.178;2023-05-10T05:10:01;16;13;
57289;PMS5003;43523;53.022;-1.178;2023-05-10T05:11:04;18;10;
57289;PMS5003;43523;53.022;-1.178;2023-05-10T05:12:06;12;9;
57289;PMS5003;43523;53.022;-1.178;2023-05-10T05:13:09;9;8;
57289;PMS5003;43523;53.022;-1.178;2023-05-10T05:14:11;13;9;
57289;PMS5003;43523;53.022;-1.178;2023-05-10T05:15:13;14;11;
57289;PMS5003;43523;53.022;-1.178;2023-05-10T05:16:16;10;9;
57289;PMS5003;43523;53.022;-1.178;2023-05-10T05:17:18;19;13;
57289;PMS5003;43523;53.022;-1.178;2023-05-10T05:18:20;8;7;
57289;PMS5003;43523;53.022;-1.178;2023-05-10T05:19:22;12;10;
57289;PMS5003;43523;53.022;-1.178;2023-05-10T05:20:25;11;6;
57289;PMS5003;43523;53.022;-1.178;2023-05-10T05:21:26;15;9;
57289;PMS5003;43523;53.022;-1.178;2023-05-10T05:22:28;9;5;
57289;PMS5003;43523;53.022;-1.178;2023-05-10T05:23:31;8;6;
57289;PMS5003;43523;53.022;-1.178;2023-05-10T05:24:34;8;6;
57289;PMS5003;43523;53.022;-1.178;2023-05-10T05:25:37;11;9;
57289;PMS5003;43523;53.022;-1.178;2023-05-10T05:26:40;12;8;
57289;PMS5003;43523;53.022;-1.178;2023-05-10T05:27:42;10;8;
57289;PMS5003;43523;53.022;-1.178;2023-05-10T05:28:45;10;7;
57289;PMS5003;43523;53.022;-1.178;2023-05-10T05:29:48;12;11;
57289;PMS5003;43523;53.022;-1.178;2023-05-10T05:30:50;13;12;
57289;PMS5003;43523;53.022;-1.178;2023-05-10T05:31:53;14;9;
57289;PMS5003;43523;53.022;-1.178;2023-05-10T05:32:55;18;11;
57289;PMS5003;43523;53.022;-1.178;2023-05-10T05:33:58;11;11;
57289;PMS5003;43523;53.022;-1.178;2023-05-10T05:35:00;19;10;
57289;PMS5003;43523;53.022;-1.178;2023-05-10T05:36:04;13;10;
57289;PMS5003;43523;53.022;-1.178;2023-05-10T05:37:07;10;10;
57289;PMS5003;43523;53.022;-1.178;2023-05-10T05:38:15;10;10;
57289;PMS5003;43523;53.022;-1.178;2023-05-10T05:39:17;11;9;
57289;PMS5003;43523;53.022;-1.178;2023-05-10T05:40:20;9;8;
57289;PMS5003;43523;53.022;-1.178;2023-05-10T05:41:22;12;9;
57289;PMS5003;43523;53.022;-1.178;2023-05-10T05:42:25;16;16;
57289;PMS5003;43523;53.022;-1.178;2023-05-10T05:43:27;12;9;
57289;PMS5003;43523;53.022;-1.178;2023-05-10T05:44:29;12;9;
57289;PMS5003;43523;53.022;-1.178;2023-05-10T05:45:32;17;14;
57289;PMS5003;43523;53.022;-1.178;2023-05-10T05:46:34;15;10;
57289;PMS5003;43523;53.022;-1.178;2023-05-10T05:47:36;21;17;
57289;PMS5003;43523;53.022;-1.178;2023-05-10T05:48:39;15;15;
57289;PMS5003;43523;53.022;-1.178;2023-05-10T05:49:41;12;12;
57289;PMS5003;43523;53.022;-1.178;2023-05-10T05:50:43;13;11;
57289;PMS5003;43523;53.022;-1.178;2023-05-10T05:51:46;14;13;
57289;PMS5003;43523;53.022;-1.178;2023-05-10T05:52:49;17;14;
57289;PMS5003;43523;53.022;-1.178;2023-05-10T05:53:51;12;10;
57289;PMS5003;43523;53.022;-1.178;2023-05-10T05:54:53;18;13;
57289;PMS5003;43523;53.022;-1.178;2023-05-10T05:55:56;18;15;
57289;PMS5003;43523;53.022;-1.178;2023-05-10T05:57:00;16;15;
57289;PMS5003;43523;53.022;-1.178;2023-05-10T05:58:03;17;16;
57289;PMS5003;43523;53.022;-1.178;2023-05-10T05:59:05;19;14;
57289;PMS5003;43523;53.022;-1.178;2023-05-10T06:00:08;21;14;
57289;PMS5003;43523;53.022;-1.178;2023-05-10T06:01:11;17;15;
57289;PMS5003;43523;53.022;-1.178;2023-05-10T06:02:13;13;11;
57289;PMS5003;43523;53.022;-1.178;2023-05-10T06:03:15;18;13;
57289;PMS5003;43523;53.022;-1.178;2023-05-10T06:04:18;20;17;
57289;PMS5003;43523;53.022;-1.178;2023-05-10T06:05:20;14;12;
57289;PMS5003;43523;53.022;-1.178;2023-05-10T06:06:22;21;17;
57289;PMS5003;43523;53.022;-1.178;2023-05-10T06:07:25;16;15;
57289;PMS5003;43523;53.022;-1.178;2023-05-10T06:08:27;25;16;
57289;PMS5003;43523;53.022;-1.178;2023-05-10T06:09:29;18;13;
57289;PMS5003;43523;53.022;-1.178;2023-05-10T06:10:32;15;12;
57289;PMS5003;43523;53.022;-1.178;2023-05-10T06:11:34;15;13;
57289;PMS5003;43523;53.022;-1.178;2023-05-10T06:12:37;13;13;
57289;PMS5003;43523;53.022;-1.178;2023-05-10T06:13:39;18;15;
57289;PMS5003;43523;53.022;-1.178;2023-05-10T06:14:42;18;17;
57289;PMS5003;43523;53.022;-1.178;2023-05-10T06:15:44;16;14;
57289;PMS5003;43523;53.022;-1.178;2023-05-10T06:16:48;19;12;
57289;PMS5003;43523;53.022;-1.178;2023-05-10T06:17:50;20;14;
57289;PMS5003;43523;53.022;-1.178;2023-05-10T06:18:52;14;14;
57289;PMS5003;43523;53.022;-1.178;2023-05-10T06:19:55;21;17;
57289;PMS5003;43523;53.022;-1.178;2023-05-10T06:20:57;15;13;
57289;PMS5003;43523;53.022;-1.178;2023-05-10T06:22:00;18;15;
57289;PMS5003;43523;53.022;-1.178;2023-05-10T06:23:02;18;13;
57289;PMS5003;43523;53.022;-1.178;2023-05-10T06:24:05;16;14;
57289;PMS5003;43523;53.022;-1.178;2023-05-10T06:25:08;20;14;
57289;PMS5003;43523;53.022;-1.178;2023-05-10T06:26:11;19;14;
57289;PMS5003;43523;53.022;-1.178;2023-05-10T06:27:14;16;11;
57289;PMS5003;43523;53.022;-1.178;2023-05-10T06:28:17;13;12;
57289;PMS5003;43523;53.022;-1.178;2023-05-10T06:29:19;19;16;
57289;PMS5003;43523;53.022;-1.178;2023-05-10T06:30:21;18;16;
57289;PMS5003;43523;53.022;-1.178;2023-05-10T06:31:23;16;14;
57289;PMS5003;43523;53.022;-1.178;2023-05-10T06:32:26;23;18;
57289;PMS5003;43523;53.022;-1.178;2023-05-10T06:33:28;21;14;
57289;PMS5003;43523;53.022;-1.178;2023-05-10T06:34:30;17;14;
57289;PMS5003;43523;53.022;-1.178;2023-05-10T06:35:32;19;18;
57289;PMS5003;43523;53.022;-1.178;2023-05-10T06:36:34;15;14;
57289;PMS5003;43523;53.022;-1.178;2023-05-10T06:37:37;14;14;
57289;PMS5003;43523;53.022;-1.178;2023-05-10T06:38:39;17;16;
57289;PMS5003;43523;53.022;-1.178;2023-05-10T06:39:41;15;13;
57289;PMS5003;43523;53.022;-1.178;2023-05-10T06:40:44;16;15;
57289;PMS5003;43523;53.022;-1.178;2023-05-10T06:41:48;18;16;
57289;PMS5003;43523;53.022;-1.178;2023-05-10T06:42:51;14;14;
57289;PMS5003;43523;53.022;-1.178;2023-05-10T06:43:53;17;15;
57289;PMS5003;43523;53.022;-1.178;2023-05-10T06:44:55;21;15;
57289;PMS5003;43523;53.022;-1.178;2023-05-10T06:45:58;19;17;
57289;PMS5003;43523;53.022;-1.178;2023-05-10T06:47:00;22;17;
57289;PMS5003;43523;53.022;-1.178;2023-05-10T06:48:02;19;14;
57289;PMS5003;43523;53.022;-1.178;2023-05-10T06:49:05;22;17;
57289;PMS5003;43523;53.022;-1.178;2023-05-10T06:50:08;20;15;
57289;PMS5003;43523;53.022;-1.178;2023-05-10T06:51:11;20;13;
57289;PMS5003;43523;53.022;-1.178;2023-05-10T06:52:13;16;14;
57289;PMS5003;43523;53.022;-1.178;2023-05-10T06:53:16;14;11;
57289;PMS5003;43523;53.022;-1.178;2023-05-10T06:54:19;22;18;
57289;PMS5003;43523;53.022;-1.178;2023-05-10T06:55:21;16;15;
57289;PMS5003;43523;53.022;-1.178;2023-05-10T06:56:24;15;14;
57289;PMS5003;43523;53.022;-1.178;2023-05-10T06:57:26;18;14;
57289;PMS5003;43523;53.022;-1.178;2023-05-10T06:58:28;14;14;
57289;PMS5003;43523;53.022;-1.178;2023-05-10T06:59:30;13;12;
57289;PMS5003;43523;53.022;-1.178;2023-05-10T07:00:32;18;11;
57289;PMS5003;43523;53.022;-1.178;2023-05-10T07:01:35;17;13;
57289;PMS5003;43523;53.022;-1.178;2023-05-10T07:02:37;19;13;
57289;PMS5003;43523;53.022;-1.178;2023-05-10T07:03:39;17;13;
57289;PMS5003;43523;53.022;-1.178;2023-05-10T07:04:42;20;13;
57289;PMS5003;43523;53.022;-1.178;2023-05-10T07:05:44;17;16;